Time;durP1;ratioP1;P1;durP2;ratioP2;P2;SDS_P1;SDS_P2;PMS_P1;PMS_P2;Temp;Humidity;BMP_temperature;BMP_pressure;BME280_temperature;BME280_humidity;BME280_pressure;Samples;Min_cycle;Max_cycle;Signal;HPM_P1;HPM_P2
2022/02/23 00:01:01;;;;;;;;;;;17.30;37.10;;;;;;8330693;28;20404;-51
2022/02/23 00:05:01;;;;;;;;;;;17.30;37.20;;;;;;8330043;28;19917;-50
2022/02/23 00:09:02;;;;;;;;;;;17.30;37.20;;;;;;8330368;28;19929;-49
2022/02/23 00:13:03;;;;;;;;;;;17.30;37.20;;;;;;8330476;28;20369;-48
2022/02/23 00:17:04;;;;;;;;;;;17.30;37.20;;;;;;8330191;28;19921;-51
2022/02/23 00:21:04;;;;;;;;;;;17.30;37.20;;;;;;8330309;28;20055;-49
2022/02/23 00:25:05;;;;;;;;;;;17.20;37.20;;;;;;8330294;28;19917;-51
2022/02/23 00:29:05;;;;;;;;;;;17.20;37.20;;;;;;8329518;28;20012;-50
2022/02/23 00:33:06;;;;;;;;;;;17.20;37.20;;;;;;8330028;28;19924;-52
2022/02/23 00:37:07;;;;;;;;;;;17.20;37.20;;;;;;8330102;28;20374;-52
2022/02/23 00:41:07;;;;;;;;;;;17.20;37.20;;;;;;8329413;28;20063;-48
2022/02/23 00:45:08;;;;;;;;;;;17.20;37.30;;;;;;8330081;28;19924;-49
2022/02/23 00:49:09;;;;;;;;;;;17.20;37.30;;;;;;8329853;28;19970;-52
2022/02/23 00:53:09;;;;;;;;;;;17.20;37.30;;;;;;8329378;28;19928;-52
2022/02/23 00:57:10;;;;;;;;;;;17.20;37.30;;;;;;8329931;28;20295;-51
2022/02/23 01:01:10;;;;;;;;;;;17.20;37.30;;;;;;8329612;28;20433;-50
2022/02/23 01:05:11;;;;;;;;;;;17.20;37.30;;;;;;8333082;28;19928;-51
2022/02/23 01:09:11;;;;;;;;;;;17.20;37.30;;;;;;8335534;28;19925;-49
2022/02/23 01:13:11;;;;;;;;;;;17.20;37.30;;;;;;8336096;28;19920;-49
2022/02/23 01:17:12;;;;;;;;;;;17.20;37.40;;;;;;8333123;28;19917;-51
2022/02/23 01:21:12;;;;;;;;;;;17.20;37.40;;;;;;8335211;28;19971;-50
2022/02/23 01:25:13;;;;;;;;;;;17.20;37.40;;;;;;8335456;28;19917;-52
2022/02/23 01:29:13;;;;;;;;;;;17.20;37.40;;;;;;8334772;28;19924;-50
2022/02/23 01:33:14;;;;;;;;;;;17.20;37.50;;;;;;8335496;28;19913;-49
2022/02/23 01:37:14;;;;;;;;;;;17.20;37.50;;;;;;8335572;28;20389;-52
2022/02/23 01:41:19;;;;;;;;;;;17.20;37.50;;;;;;8334514;28;19924;-49
2022/02/23 01:45:19;;;;;;;;;;;17.20;37.50;;;;;;8335023;28;19952;-51
2022/02/23 01:49:20;;;;;;;;;;;17.20;37.60;;;;;;8334586;28;19928;-51
2022/02/23 01:53:21;;;;;;;;;;;17.20;37.60;;;;;;8335106;28;19931;-53
2022/02/23 01:57:22;;;;;;;;;;;17.20;37.60;;;;;;8334812;28;20380;-49
2022/02/23 02:01:22;;;;;;;;;;;17.20;37.50;;;;;;8333913;28;19913;-49
2022/02/23 02:05:22;;;;;;;;;;;17.10;37.50;;;;;;8334292;28;19949;-52
2022/02/23 02:09:23;;;;;;;;;;;17.10;37.50;;;;;;8318442;28;20425;-51
2022/02/23 02:13:23;;;;;;;;;;;17.20;37.60;;;;;;8333952;28;19917;-48
2022/02/23 02:17:24;;;;;;;;;;;17.10;37.60;;;;;;8332669;28;19992;-49
2022/02/23 02:21:28;;;;;;;;;;;17.10;37.60;;;;;;8333690;28;19917;-50
2022/02/23 02:25:28;;;;;;;;;;;17.10;37.60;;;;;;8333127;28;19913;-51
2022/02/23 02:29:29;;;;;;;;;;;17.10;37.60;;;;;;8333399;28;20389;-49
2022/02/23 02:33:30;;;;;;;;;;;17.10;37.70;;;;;;8333737;28;19917;-52
2022/02/23 02:37:30;;;;;;;;;;;17.10;37.60;;;;;;8333017;28;20000;-51
2022/02/23 02:41:31;;;;;;;;;;;17.10;37.70;;;;;;8333173;28;19960;-52
2022/02/23 02:45:32;;;;;;;;;;;17.10;37.60;;;;;;8333053;28;19921;-48
2022/02/23 02:49:32;;;;;;;;;;;17.10;37.70;;;;;;8331232;28;20370;-50
2022/02/23 02:53:33;;;;;;;;;;;17.10;37.70;;;;;;8332605;28;20301;-52
2022/02/23 02:57:33;;;;;;;;;;;17.10;37.70;;;;;;8332712;28;19917;-51
2022/02/23 03:01:34;;;;;;;;;;;17.10;37.70;;;;;;8332305;28;19917;-49
2022/02/23 03:05:35;;;;;;;;;;;17.10;37.70;;;;;;8332158;28;19923;-49
2022/02/23 03:09:35;;;;;;;;;;;17.10;37.70;;;;;;8332224;28;19913;-49
2022/02/23 03:13:36;;;;;;;;;;;17.10;37.70;;;;;;8331955;28;19917;-52
2022/02/23 03:17:37;;;;;;;;;;;17.10;37.80;;;;;;8332156;28;19917;-52
2022/02/23 03:21:37;;;;;;;;;;;17.10;37.80;;;;;;8332359;28;19961;-53
2022/02/23 03:25:38;;;;;;;;;;;17.10;37.80;;;;;;8331110;28;20011;-49
2022/02/23 03:29:38;;;;;;;;;;;17.10;37.80;;;;;;8331696;28;19913;-52
2022/02/23 03:33:45;;;;;;;;;;;17.10;37.70;;;;;;8331720;28;20374;-51
2022/02/23 03:37:46;;;;;;;;;;;17.10;37.80;;;;;;8330958;28;19996;-50
2022/02/23 03:41:46;;;;;;;;;;;17.10;37.80;;;;;;8331391;28;20293;-50
2022/02/23 03:45:47;;;;;;;;;;;17.10;37.80;;;;;;8331031;28;19925;-49
2022/02/23 03:49:47;;;;;;;;;;;17.10;37.80;;;;;;8331034;28;20445;-49
2022/02/23 03:53:48;;;;;;;;;;;17.10;37.80;;;;;;8331191;28;19921;-48
2022/02/23 03:57:48;;;;;;;;;;;17.10;37.90;;;;;;8330957;28;19917;-54
2022/02/23 04:01:49;;;;;;;;;;;17.10;37.90;;;;;;8330448;28;19917;-50
2022/02/23 04:05:49;;;;;;;;;;;17.10;37.90;;;;;;8330916;28;19925;-48
2022/02/23 04:09:50;;;;;;;;;;;17.10;37.80;;;;;;8330606;28;19918;-52
2022/02/23 04:13:50;;;;;;;;;;;17.10;37.90;;;;;;8330396;28;19913;-48
2022/02/23 04:17:51;;;;;;;;;;;17.00;37.90;;;;;;8330334;28;19932;-48
2022/02/23 04:21:51;;;;;;;;;;;17.10;37.90;;;;;;8330502;28;19970;-48
2022/02/23 04:25:52;;;;;;;;;;;17.00;37.90;;;;;;8329298;28;19929;-51
2022/02/23 04:29:52;;;;;;;;;;;17.00;37.80;;;;;;8330166;28;19929;-50
2022/02/23 04:33:53;;;;;;;;;;;17.00;37.90;;;;;;8330375;28;19918;-50
2022/02/23 04:37:53;;;;;;;;;;;17.00;37.90;;;;;;8330186;28;20354;-47
2022/02/23 04:41:54;;;;;;;;;;;17.10;37.90;;;;;;8336711;28;19921;-50
2022/02/23 04:45:54;;;;;;;;;;;17.00;37.90;;;;;;8336733;28;19925;-47
2022/02/23 04:49:55;;;;;;;;;;;17.00;37.90;;;;;;8336336;28;20000;-49
2022/02/23 04:53:59;;;;;;;;;;;17.10;37.90;;;;;;8337080;28;19928;-49
2022/02/23 04:58:07;;;;;;;;;;;17.10;37.90;;;;;;8336430;28;20398;-47
2022/02/23 05:02:09;;;;;;;;;;;17.10;37.90;;;;;;8336067;28;19940;-50
2022/02/23 05:06:10;;;;;;;;;;;17.10;37.90;;;;;;8335959;28;20024;-48
2022/02/23 05:10:10;;;;;;;;;;;17.10;37.90;;;;;;8335282;28;19925;-48
2022/02/23 05:14:11;;;;;;;;;;;17.10;37.90;;;;;;8335568;28;19975;-50
2022/02/23 05:18:11;;;;;;;;;;;17.00;37.90;;;;;;8335877;28;19925;-48
2022/02/23 05:22:12;;;;;;;;;;;17.10;37.90;;;;;;8335535;28;19914;-47
2022/02/23 05:26:14;;;;;;;;;;;17.10;37.90;;;;;;8334874;28;19925;-53
2022/02/23 05:30:14;;;;;;;;;;;17.10;37.90;;;;;;8335465;28;20007;-49
2022/02/23 05:34:15;;;;;;;;;;;17.10;37.90;;;;;;8335469;28;19917;-48
2022/02/23 05:38:15;;;;;;;;;;;17.10;38.40;;;;;;8334698;28;20003;-49
2022/02/23 05:42:15;;;;;;;;;;;17.10;37.90;;;;;;8334846;28;19924;-52
2022/02/23 05:46:16;;;;;;;;;;;17.10;37.90;;;;;;8334867;28;19921;-51
2022/02/23 05:50:17;;;;;;;;;;;17.10;37.90;;;;;;8334361;28;20366;-49
2022/02/23 05:54:18;;;;;;;;;;;17.10;37.90;;;;;;8335088;28;19922;-48
2022/02/23 05:58:18;;;;;;;;;;;17.10;37.90;;;;;;8334741;28;19921;-49
2022/02/23 06:02:18;;;;;;;;;;;17.10;37.90;;;;;;8333965;28;20270;-50
2022/02/23 06:06:19;;;;;;;;;;;17.10;37.90;;;;;;8334340;28;20006;-48
2022/02/23 06:10:24;;;;;;;;;;;17.10;37.90;;;;;;8333230;28;21374;-48
2022/02/23 06:14:25;;;;;;;;;;;17.10;37.90;;;;;;8334288;28;19913;-50
2022/02/23 06:18:25;;;;;;;;;;;17.10;37.90;;;;;;8334195;28;19921;-49
2022/02/23 06:22:25;;;;;;;;;;;17.10;37.90;;;;;;8333424;28;19992;-50
2022/02/23 06:26:26;;;;;;;;;;;17.10;37.90;;;;;;8333728;28;19937;-49
2022/02/23 06:30:26;;;;;;;;;;;17.10;37.90;;;;;;8333577;28;19918;-51
2022/02/23 06:34:27;;;;;;;;;;;17.10;37.90;;;;;;8331972;28;20294;-49
2022/02/23 06:38:27;;;;;;;;;;;17.10;37.90;;;;;;8333611;28;19924;-48
2022/02/23 06:42:28;;;;;;;;;;;17.10;37.90;;;;;;8333382;28;19913;-49
2022/02/23 06:46:29;;;;;;;;;;;17.10;37.90;;;;;;8332170;28;20018;-50
2022/02/23 06:50:29;;;;;;;;;;;17.10;38.00;;;;;;8331365;28;20000;-50
2022/02/23 06:54:30;;;;;;;;;;;17.10;38.00;;;;;;8331300;28;19944;-51
2022/02/23 06:58:30;;;;;;;;;;;17.10;37.90;;;;;;8330543;28;19913;-49
2022/02/23 07:02:31;;;;;;;;;;;17.10;37.90;;;;;;8330169;28;20434;-51
2022/02/23 07:06:33;;;;;;;;;;;17.10;37.90;;;;;;8330530;28;20333;-48
2022/02/23 07:10:34;;;;;;;;;;;17.10;38.00;;;;;;8330311;28;19944;-51
2022/02/23 07:14:34;;;;;;;;;;;17.10;38.00;;;;;;8330496;28;19999;-51
2022/02/23 07:18:35;;;;;;;;;;;17.10;38.00;;;;;;8329381;28;19939;-48
2022/02/23 07:22:36;;;;;;;;;;;17.10;38.00;;;;;;8330831;28;19917;-49
2022/02/23 07:26:36;;;;;;;;;;;17.10;38.00;;;;;;8330756;28;20292;-47
2022/02/23 07:30:38;;;;;;;;;;;17.10;38.00;;;;;;8331450;28;19987;-47
2022/02/23 07:34:39;;;;;;;;;;;17.10;38.00;;;;;;8330661;28;20293;-47
2022/02/23 07:38:42;;;;;;;;;;;17.10;38.00;;;;;;8330898;28;19928;-46
2022/02/23 07:42:42;;;;;;;;;;;17.10;38.00;;;;;;8329987;28;19940;-49
2022/02/23 07:46:43;;;;;;;;;;;17.10;38.00;;;;;;8329017;28;19952;-48
2022/02/23 07:50:43;;;;;;;;;;;17.10;38.00;;;;;;8329906;28;19914;-49
2022/02/23 07:54:44;;;;;;;;;;;17.10;38.00;;;;;;8329258;28;19928;-52
2022/02/23 07:58:44;;;;;;;;;;;17.10;38.00;;;;;;8328810;28;19928;-48
2022/02/23 08:02:45;;;;;;;;;;;17.10;38.00;;;;;;8329096;28;20293;-49
2022/02/23 08:06:45;;;;;;;;;;;17.10;38.00;;;;;;8327615;28;19921;-48
2022/02/23 08:10:46;;;;;;;;;;;17.10;38.00;;;;;;8328468;28;20381;-49
2022/02/23 08:14:47;;;;;;;;;;;17.10;38.00;;;;;;8327856;28;20296;-48
2022/02/23 08:23:07;;;;;;;;;;;17.10;38.00;;;;;;8328402;28;20314;-47
2022/02/23 08:27:09;;;;;;;;;;;17.10;38.00;;;;;;8328575;28;19921;-50
2022/02/23 08:31:09;;;;;;;;;;;17.10;38.00;;;;;;8328702;28;20343;-48
2022/02/23 08:35:10;;;;;;;;;;;17.10;38.00;;;;;;8328052;28;19918;-49
2022/02/23 08:39:10;;;;;;;;;;;17.10;38.00;;;;;;8328584;28;19917;-50
2022/02/23 08:43:11;;;;;;;;;;;17.10;38.00;;;;;;8328506;28;19917;-49
2022/02/23 08:47:12;;;;;;;;;;;17.10;38.00;;;;;;8327712;28;19936;-48
2022/02/23 08:51:12;;;;;;;;;;;17.10;38.00;;;;;;8328711;28;19913;-48
2022/02/23 08:55:14;;;;;;;;;;;17.10;38.00;;;;;;8328554;28;20405;-49
2022/02/23 08:59:14;;;;;;;;;;;17.20;38.10;;;;;;8329182;28;19923;-50
2022/02/23 09:03:15;;;;;;;;;;;17.20;38.10;;;;;;8329810;28;19913;-49
2022/02/23 09:07:15;;;;;;;;;;;17.20;38.10;;;;;;8329456;28;19925;-49
2022/02/23 09:11:16;;;;;;;;;;;17.20;38.10;;;;;;8329183;28;19913;-47
2022/02/23 09:15:17;;;;;;;;;;;17.20;38.10;;;;;;8329383;28;19918;-48
2022/02/23 09:19:17;;;;;;;;;;;17.20;38.10;;;;;;8329509;28;19913;-47
2022/02/23 09:23:19;;;;;;;;;;;17.20;38.10;;;;;;8328963;28;19999;-49
2022/02/23 09:27:20;;;;;;;;;;;17.20;38.10;;;;;;8334864;28;19932;-48
2022/02/23 09:31:20;;;;;;;;;;;17.20;38.10;;;;;;8334914;28;19917;-53
2022/02/23 09:35:21;;;;;;;;;;;17.20;38.10;;;;;;8335306;28;19921;-51
2022/02/23 09:39:21;;;;;;;;;;;17.20;38.00;;;;;;8334703;28;19966;-51
2022/02/23 09:43:22;;;;;;;;;;;17.20;38.00;;;;;;8334478;28;19917;-48
2022/02/23 09:47:25;;;;;;;;;;;17.20;38.10;;;;;;8334515;28;19940;-49
2022/02/23 09:51:25;;;;;;;;;;;17.20;38.00;;;;;;8334934;28;19914;-51
2022/02/23 09:55:27;;;;;;;;;;;17.20;38.00;;;;;;8333990;28;20405;-49
2022/02/23 09:59:28;;;;;;;;;;;17.20;38.00;;;;;;8334551;28;19917;-50
2022/02/23 10:03:28;;;;;;;;;;;17.20;38.00;;;;;;8334459;28;19913;-51
2022/02/23 10:07:30;;;;;;;;;;;17.20;38.00;;;;;;8333792;28;19932;-49
2022/02/23 10:11:31;;;;;;;;;;;17.20;38.00;;;;;;8334320;28;19913;-48
2022/02/23 10:15:36;;;;;;;;;;;17.30;38.00;;;;;;8333850;28;19927;-49
2022/02/23 10:19:46;;;;;;;;;;;17.30;38.00;;;;;;8333297;28;19999;-51
2022/02/23 10:23:47;;;;;;;;;;;17.30;38.00;;;;;;8333753;28;20393;-50
2022/02/23 10:27:48;;;;;;;;;;;17.30;38.00;;;;;;8333598;28;19972;-52
2022/02/23 10:31:49;;;;;;;;;;;17.30;38.00;;;;;;8333004;28;20012;-48
2022/02/23 10:35:51;;;;;;;;;;;17.30;38.00;;;;;;8332665;28;19917;-51
2022/02/23 10:39:53;;;;;;;;;;;17.30;37.90;;;;;;8333080;28;19917;-49
2022/02/23 10:43:54;;;;;;;;;;;17.30;37.90;;;;;;8332518;28;20031;-53
2022/02/23 10:47:54;;;;;;;;;;;17.40;38.00;;;;;;8332716;28;19953;-52
2022/02/23 10:51:59;;;;;;;;;;;17.40;38.00;;;;;;8332671;28;19997;-52
2022/02/23 10:56:00;;;;;;;;;;;17.40;37.90;;;;;;8331990;28;19993;-53
2022/02/23 11:00:11;;;;;;;;;;;17.40;37.90;;;;;;8332223;28;19917;-47
2022/02/23 11:04:11;;;;;;;;;;;17.40;37.90;;;;;;8332296;28;20432;-49
2022/02/23 11:08:14;;;;;;;;;;;17.40;37.90;;;;;;8331020;28;19975;-51
2022/02/23 11:12:15;;;;;;;;;;;17.40;37.90;;;;;;8332597;28;19920;-53
2022/02/23 11:16:16;;;;;;;;;;;17.40;37.80;;;;;;8331994;28;20051;-54
2022/02/23 11:20:19;;;;;;;;;;;17.40;37.80;;;;;;8331170;28;20339;-49
2022/02/23 11:24:20;;;;;;;;;;;17.40;37.80;;;;;;8331771;28;19956;-49
2022/02/23 11:28:24;;;;;;;;;;;17.50;37.90;;;;;;8331321;28;19932;-49
2022/02/23 11:32:32;;;;;;;;;;;17.40;37.80;;;;;;8331398;28;19948;-50
2022/02/23 11:36:35;;;;;;;;;;;17.50;37.90;;;;;;8331930;28;19952;-49
2022/02/23 11:41:08;;;;;;;;;;;17.50;37.90;;;;;;8330886;28;20366;-49
2022/02/23 11:45:13;;;;;;;;;;;17.50;37.80;;;;;;8297775;28;20341;-52
2022/02/23 11:49:14;;;;;;;;;;;17.50;37.80;;;;;;8330914;28;20313;-48
2022/02/23 11:53:15;;;;;;;;;;;17.50;37.80;;;;;;8330335;28;19925;-49
2022/02/23 11:57:33;;;;;;;;;;;17.50;37.80;;;;;;8330955;28;19936;-51
2022/02/23 12:01:57;;;;;;;;;;;17.50;37.80;;;;;;8330411;28;19917;-49
2022/02/23 12:06:02;;;;;;;;;;;17.50;37.80;;;;;;8330319;28;19917;-50
2022/02/23 12:10:02;;;;;;;;;;;17.50;37.80;;;;;;8330591;28;19921;-48
2022/02/23 12:14:03;;;;;;;;;;;17.50;37.70;;;;;;8329982;28;20397;-50
2022/02/23 12:18:13;;;;;;;;;;;17.50;37.80;;;;;;8330302;28;20002;-49
2022/02/23 12:22:14;;;;;;;;;;;17.50;37.70;;;;;;8330461;28;20286;-48
2022/02/23 12:26:16;;;;;;;;;;;17.50;37.70;;;;;;8329683;28;19972;-52
2022/02/23 12:30:16;;;;;;;;;;;17.50;37.70;;;;;;8330531;28;19923;-47
2022/02/23 12:34:18;;;;;;;;;;;17.60;37.70;;;;;;8330083;28;20393;-49
2022/02/23 12:38:26;;;;;;;;;;;17.50;37.70;;;;;;8329654;28;19924;-51
2022/02/23 12:42:27;;;;;;;;;;;17.60;37.70;;;;;;8330468;28;19913;-53
2022/02/23 12:46:29;;;;;;;;;;;17.60;37.70;;;;;;8329287;28;19927;-49
2022/02/23 12:50:29;;;;;;;;;;;17.60;37.60;;;;;;8329633;28;19917;-50
2022/02/23 12:54:32;;;;;;;;;;;17.60;37.60;;;;;;8329527;28;20461;-48
2022/02/23 12:58:33;;;;;;;;;;;17.60;37.50;;;;;;8329192;28;20008;-50
2022/02/23 13:02:34;;;;;;;;;;;17.70;37.60;;;;;;8336209;28;19920;-50
2022/02/23 13:06:37;;;;;;;;;;;17.70;37.60;;;;;;8336113;28;19925;-53
2022/02/23 13:10:37;;;;;;;;;;;17.60;37.60;;;;;;8335818;28;19921;-51
2022/02/23 13:14:40;;;;;;;;;;;17.70;37.60;;;;;;8335639;28;20285;-49
2022/02/23 13:18:42;;;;;;;;;;;17.70;37.60;;;;;;8335753;28;20255;-52
2022/02/23 13:22:43;;;;;;;;;;;17.70;37.60;;;;;;8335454;28;20372;-52
2022/02/23 13:26:48;;;;;;;;;;;17.70;37.50;;;;;;8335279;28;19925;-49
2022/02/23 13:30:55;;;;;;;;;;;17.70;37.50;;;;;;8335209;28;19991;-52
2022/02/23 13:34:56;;;;;;;;;;;17.70;37.50;;;;;;8334684;28;19948;-51
2022/02/23 13:39:13;;;;;;;;;;;17.70;37.50;;;;;;8335060;28;19917;-53
2022/02/23 13:43:13;;;;;;;;;;;17.70;37.40;;;;;;8335123;28;19914;-49
2022/02/23 13:47:15;;;;;;;;;;;17.70;37.50;;;;;;8334130;28;19925;-49
2022/02/23 13:51:24;;;;;;;;;;;17.70;37.40;;;;;;8334424;28;19924;-52
2022/02/23 13:55:36;;;;;;;;;;;17.70;37.40;;;;;;8333936;28;19920;-49
2022/02/23 13:59:38;;;;;;;;;;;17.70;37.40;;;;;;8334517;28;19923;-50
2022/02/23 14:03:39;;;;;;;;;;;17.70;37.40;;;;;;8334524;28;19913;-50
2022/02/23 14:07:51;;;;;;;;;;;17.70;37.40;;;;;;8333973;28;20020;-51
2022/02/23 14:11:57;;;;;;;;;;;17.80;37.40;;;;;;8315170;28;19917;-50
2022/02/23 14:16:05;;;;;;;;;;;17.80;37.40;;;;;;8321603;28;19944;-50
2022/02/23 14:20:13;;;;;;;;;;;17.80;37.40;;;;;;8333306;28;19918;-53
2022/02/23 14:24:20;;;;;;;;;;;17.80;37.30;;;;;;8333702;28;19917;-51
2022/02/23 14:28:37;;;;;;;;;;;17.80;37.20;;;;;;8333340;28;20429;-52
2022/02/23 14:32:38;;;;;;;;;;;17.80;37.20;;;;;;8301230;28;20017;-52
2022/02/23 14:36:39;;;;;;;;;;;17.80;37.20;;;;;;8325260;28;19917;-52
2022/02/23 14:40:39;;;;;;;;;;;17.80;37.20;;;;;;8332518;28;19974;-51
2022/02/23 14:44:40;;;;;;;;;;;17.80;37.20;;;;;;8333594;28;19917;-52
2022/02/23 14:48:40;;;;;;;;;;;17.80;37.20;;;;;;8333110;28;20312;-52
2022/02/23 14:52:43;;;;;;;;;;;17.90;37.20;;;;;;8330325;28;20444;-49
2022/02/23 14:56:43;;;;;;;;;;;17.80;37.20;;;;;;8333231;28;20374;-52
2022/02/23 15:00:44;;;;;;;;;;;17.80;37.20;;;;;;8332878;28;19913;-51
2022/02/23 15:04:45;;;;;;;;;;;17.80;37.20;;;;;;8332236;28;20054;-53
2022/02/23 15:08:46;;;;;;;;;;;17.80;37.20;;;;;;8332077;28;19925;-51
2022/02/23 15:12:47;;;;;;;;;;;17.80;37.10;;;;;;8332066;28;20290;-48
2022/02/23 15:16:48;;;;;;;;;;;17.90;37.20;;;;;;8331302;28;19924;-50
2022/02/23 15:20:48;;;;;;;;;;;17.80;37.20;;;;;;8331996;28;19939;-50
2022/02/23 15:24:49;;;;;;;;;;;17.80;37.10;;;;;;8330884;28;19913;-52
2022/02/23 15:28:49;;;;;;;;;;;17.90;37.10;;;;;;8331137;28;19987;-49
2022/02/23 15:32:50;;;;;;;;;;;17.90;37.20;;;;;;8331321;28;20017;-51
2022/02/23 15:36:51;;;;;;;;;;;17.90;37.20;;;;;;8331405;28;20397;-50
2022/02/23 15:40:51;;;;;;;;;;;17.90;37.20;;;;;;8330613;28;19917;-50
2022/02/23 15:44:51;;;;;;;;;;;17.90;37.10;;;;;;8330929;28;20266;-51
2022/02/23 15:48:52;;;;;;;;;;;17.80;37.10;;;;;;8331001;28;19925;-48
2022/02/23 15:52:53;;;;;;;;;;;17.80;37.10;;;;;;8330339;28;19924;-49
2022/02/23 15:56:54;;;;;;;;;;;17.80;37.10;;;;;;8330860;28;19967;-51
2022/02/23 16:00:54;;;;;;;;;;;17.80;37.20;;;;;;8330799;28;19913;-53
2022/02/23 16:04:55;;;;;;;;;;;17.80;37.10;;;;;;8330196;28;20363;-53
2022/02/23 16:08:55;;;;;;;;;;;17.80;37.10;;;;;;8330875;28;19928;-50
2022/02/23 16:12:55;;;;;;;;;;;17.80;37.20;;;;;;8330460;28;19952;-50
2022/02/23 16:17:00;;;;;;;;;;;17.80;37.20;;;;;;8329913;28;19917;-52
2022/02/23 16:21:01;;;;;;;;;;;17.90;37.20;;;;;;8330725;28;20393;-50
2022/02/23 16:25:02;;;;;;;;;;;17.80;37.10;;;;;;8325592;28;19917;-48
2022/02/23 16:29:03;;;;;;;;;;;17.80;37.10;;;;;;8326503;28;19929;-50
2022/02/23 16:33:03;;;;;;;;;;;17.80;37.20;;;;;;8328404;28;19953;-52
2022/02/23 16:37:05;;;;;;;;;;;17.80;37.20;;;;;;8328260;28;19948;-48
2022/02/23 16:41:06;;;;;;;;;;;17.80;37.20;;;;;;8326854;28;19924;-52
2022/02/23 16:45:07;;;;;;;;;;;17.80;37.20;;;;;;8328983;28;19920;-50
2022/02/23 16:49:07;;;;;;;;;;;17.80;37.20;;;;;;8329727;28;20393;-48
2022/02/23 16:53:09;;;;;;;;;;;17.80;37.20;;;;;;8326988;28;20003;-51
2022/02/23 16:57:09;;;;;;;;;;;17.80;37.30;;;;;;8329224;28;19918;-50
2022/02/23 17:01:09;;;;;;;;;;;17.80;37.30;;;;;;8328078;28;20299;-49
2022/02/23 17:05:10;;;;;;;;;;;17.80;37.30;;;;;;8309796;28;19917;-53
2022/02/23 17:09:10;;;;;;;;;;;17.70;37.30;;;;;;8317569;28;20337;-51
2022/02/23 17:13:11;;;;;;;;;;;17.80;37.30;;;;;;8328297;28;19917;-51
2022/02/23 17:17:12;;;;;;;;;;;17.80;37.30;;;;;;8323772;28;19921;-49
2022/02/23 17:21:13;;;;;;;;;;;17.70;37.30;;;;;;8327889;28;19924;-52
2022/02/23 17:25:13;;;;;;;;;;;17.80;37.30;;;;;;8327620;28;20348;-50
2022/02/23 17:29:14;;;;;;;;;;;17.70;37.30;;;;;;8328556;28;19921;-48
2022/02/23 17:33:15;;;;;;;;;;;17.70;37.30;;;;;;8327307;28;19917;-52
2022/02/23 17:37:16;;;;;;;;;;;17.70;37.30;;;;;;8329007;28;19991;-50
2022/02/23 17:41:17;;;;;;;;;;;17.70;37.30;;;;;;8342269;28;20400;-51
2022/02/23 17:45:17;;;;;;;;;;;17.70;37.30;;;;;;8343606;28;20032;-49
2022/02/23 17:49:17;;;;;;;;;;;17.70;37.30;;;;;;8334535;28;19925;-51
2022/02/23 17:53:18;;;;;;;;;;;17.70;37.40;;;;;;8334380;28;19928;-52
2022/02/23 17:57:19;;;;;;;;;;;17.70;37.40;;;;;;8347390;28;19921;-52
2022/02/23 18:01:19;;;;;;;;;;;17.70;37.40;;;;;;8355993;28;19920;-50
2022/02/23 18:05:20;;;;;;;;;;;17.70;37.30;;;;;;8333553;28;19917;-50
2022/02/23 18:09:20;;;;;;;;;;;17.70;37.40;;;;;;8333473;28;19925;-51
2022/02/23 18:13:21;;;;;;;;;;;17.70;37.40;;;;;;8333828;28;19917;-51
2022/02/23 18:17:21;;;;;;;;;;;17.70;37.30;;;;;;8333074;28;19917;-49
2022/02/23 18:21:22;;;;;;;;;;;17.70;37.30;;;;;;8333705;28;19917;-53
2022/02/23 18:25:22;;;;;;;;;;;17.70;37.40;;;;;;8332419;28;19967;-53
2022/02/23 18:29:25;;;;;;;;;;;17.70;37.30;;;;;;8333373;28;20286;-51
2022/02/23 18:33:25;;;;;;;;;;;17.70;37.30;;;;;;8333015;28;19924;-50
2022/02/23 18:37:26;;;;;;;;;;;17.70;37.30;;;;;;8332338;28;20008;-53
2022/02/23 18:41:26;;;;;;;;;;;17.60;37.30;;;;;;8333343;28;19964;-50
2022/02/23 18:45:27;;;;;;;;;;;17.60;37.30;;;;;;8333984;28;19920;-52
2022/02/23 18:49:27;;;;;;;;;;;17.60;37.30;;;;;;8330059;28;19933;-53
2022/02/23 18:53:28;;;;;;;;;;;17.60;37.30;;;;;;8332075;28;20015;-50
2022/02/23 18:57:28;;;;;;;;;;;17.60;37.30;;;;;;8332042;28;19913;-49
2022/02/23 19:01:29;;;;;;;;;;;17.60;37.30;;;;;;8331520;28;20432;-53
2022/02/23 19:05:29;;;;;;;;;;;17.70;37.30;;;;;;8332208;28;20381;-51
2022/02/23 19:09:30;;;;;;;;;;;17.60;37.30;;;;;;8332502;28;19925;-51
2022/02/23 19:13:30;;;;;;;;;;;17.60;37.20;;;;;;8335294;28;20404;-53
2022/02/23 19:17:31;;;;;;;;;;;17.60;37.30;;;;;;8333931;28;20290;-53
2022/02/23 19:21:33;;;;;;;;;;;17.60;37.30;;;;;;8344786;28;20373;-52
2022/02/23 19:25:33;;;;;;;;;;;17.60;37.20;;;;;;8364605;28;19943;-48
2022/02/23 19:29:34;;;;;;;;;;;17.60;37.20;;;;;;8331186;28;19973;-53
2022/02/23 19:33:35;;;;;;;;;;;17.60;37.20;;;;;;8330427;28;19990;-50
2022/02/23 19:37:39;;;;;;;;;;;17.60;37.20;;;;;;8331061;28;19921;-51
2022/02/23 19:41:40;;;;;;;;;;;17.60;37.20;;;;;;8331616;28;19913;-53
2022/02/23 19:45:41;;;;;;;;;;;17.60;37.20;;;;;;8330521;28;19952;-52
2022/02/23 19:49:42;;;;;;;;;;;17.60;37.20;;;;;;8344720;28;19932;-54
2022/02/23 19:53:42;;;;;;;;;;;17.60;37.30;;;;;;8344664;28;20363;-50
2022/02/23 19:57:44;;;;;;;;;;;17.60;37.20;;;;;;8337490;28;20330;-54
2022/02/23 20:01:45;;;;;;;;;;;17.60;37.20;;;;;;8330157;28;19917;-54
2022/02/23 20:05:45;;;;;;;;;;;17.60;37.20;;;;;;8331019;28;20290;-52
2022/02/23 20:09:46;;;;;;;;;;;17.60;37.20;;;;;;8306753;28;20000;-54
2022/02/23 20:13:48;;;;;;;;;;;17.60;37.20;;;;;;8320672;28;19917;-50
2022/02/23 20:17:49;;;;;;;;;;;17.60;37.20;;;;;;8319594;28;19924;-52
2022/02/23 20:21:49;;;;;;;;;;;17.60;37.20;;;;;;8329929;28;19939;-52
2022/02/23 20:25:50;;;;;;;;;;;17.60;37.20;;;;;;8329969;28;19921;-51
2022/02/23 20:29:50;;;;;;;;;;;17.60;37.20;;;;;;8330314;28;20388;-51
2022/02/23 20:33:51;;;;;;;;;;;17.60;37.20;;;;;;8329779;28;19917;-49
2022/02/23 20:37:51;;;;;;;;;;;17.50;37.10;;;;;;8329583;28;19953;-51
2022/02/23 20:41:53;;;;;;;;;;;17.60;37.20;;;;;;8329913;28;19939;-53
2022/02/23 20:45:53;;;;;;;;;;;17.50;37.10;;;;;;8330013;28;19940;-50
2022/02/23 20:49:54;;;;;;;;;;;17.50;37.10;;;;;;8329293;28;20338;-48
2022/02/23 20:53:55;;;;;;;;;;;17.50;37.10;;;;;;8329914;28;19929;-53
2022/02/23 20:57:55;;;;;;;;;;;17.50;37.10;;;;;;8343195;28;19949;-51
2022/02/23 21:01:56;;;;;;;;;;;17.50;37.10;;;;;;8329157;28;19918;-51
2022/02/23 21:05:56;;;;;;;;;;;17.50;37.10;;;;;;8330117;28;19917;-52
2022/02/23 21:09:58;;;;;;;;;;;17.50;37.10;;;;;;8328289;28;19925;-49
2022/02/23 21:13:58;;;;;;;;;;;17.50;37.10;;;;;;8329067;28;19917;-50
2022/02/23 21:17:59;;;;;;;;;;;17.50;37.10;;;;;;8328134;28;19917;-51
2022/02/23 21:21:59;;;;;;;;;;;17.50;37.10;;;;;;8333161;28;19945;-52
2022/02/23 21:26:00;;;;;;;;;;;17.50;37.10;;;;;;8335389;28;20000;-49
2022/02/23 21:30:00;;;;;;;;;;;17.50;37.10;;;;;;8335547;28;19925;-51
2022/02/23 21:34:01;;;;;;;;;;;17.50;37.10;;;;;;8335537;28;20397;-52
2022/02/23 21:38:01;;;;;;;;;;;17.50;37.00;;;;;;8335045;28;19940;-51
2022/02/23 21:42:03;;;;;;;;;;;17.50;37.00;;;;;;8335412;28;19924;-51
2022/02/23 21:46:04;;;;;;;;;;;17.50;37.00;;;;;;8335396;28;19917;-49
2022/02/23 21:50:05;;;;;;;;;;;17.50;37.00;;;;;;8334232;28;20011;-48
2022/02/23 21:54:06;;;;;;;;;;;17.50;37.00;;;;;;8334541;28;19925;-47
2022/02/23 21:58:06;;;;;;;;;;;17.40;37.00;;;;;;8333266;28;19913;-50
2022/02/23 22:02:07;;;;;;;;;;;17.40;37.00;;;;;;8333978;28;19967;-48
2022/02/23 22:06:07;;;;;;;;;;;17.40;37.00;;;;;;8334489;28;19932;-51
2022/02/23 22:10:08;;;;;;;;;;;17.40;37.00;;;;;;8334133;28;19991;-50
2022/02/23 22:14:08;;;;;;;;;;;17.40;37.00;;;;;;8333750;28;20345;-50
2022/02/23 22:18:09;;;;;;;;;;;17.30;37.00;;;;;;8333956;28;19920;-52
2022/02/23 22:22:09;;;;;;;;;;;17.40;37.00;;;;;;8333990;28;19917;-52
2022/02/23 22:26:10;;;;;;;;;;;17.40;37.00;;;;;;8333582;28;20004;-54
2022/02/23 22:30:11;;;;;;;;;;;17.40;37.00;;;;;;8333897;28;19944;-51
2022/02/23 22:34:11;;;;;;;;;;;17.40;37.00;;;;;;8332247;28;19919;-53
2022/02/23 22:38:11;;;;;;;;;;;17.40;37.00;;;;;;8332997;28;19917;-49
2022/02/23 22:42:12;;;;;;;;;;;17.40;37.00;;;;;;8333642;28;21572;-48
2022/02/23 22:46:12;;;;;;;;;;;17.30;37.00;;;;;;8333424;28;19928;-50
2022/02/23 22:50:13;;;;;;;;;;;17.30;37.00;;;;;;8332813;28;19928;-51
2022/02/23 22:54:13;;;;;;;;;;;17.30;37.00;;;;;;8333948;28;19928;-51
2022/02/23 22:58:14;;;;;;;;;;;17.30;37.00;;;;;;8333097;28;19917;-49
2022/02/23 23:02:14;;;;;;;;;;;17.30;37.00;;;;;;8322595;28;20013;-52
2022/02/23 23:06:15;;;;;;;;;;;17.30;37.00;;;;;;8332524;28;20285;-54
2022/02/23 23:10:15;;;;;;;;;;;17.30;37.00;;;;;;8332946;28;19963;-49
2022/02/23 23:14:15;;;;;;;;;;;17.30;37.00;;;;;;8331696;28;19970;-51
2022/02/23 23:18:16;;;;;;;;;;;17.30;37.00;;;;;;8332217;28;19913;-49
2022/02/23 23:22:16;;;;;;;;;;;17.30;37.00;;;;;;8331966;28;19924;-52
2022/02/23 23:26:17;;;;;;;;;;;17.20;36.90;;;;;;8331561;28;20298;-50